Kaleen Mc Allister — WDB3847 — position and weather

sailwx.info

Track history (hours):
 
Tides and Currents Weather Stations Pressure Air Temp Water Temp Dewpoint Dewpoint Depression Visibility Wind Speed Wind Dir Waves Ship Positions

Kaleen Mc Allister

Owner: MC ALLISTER TOWING & TRANSPORTATION INC, NEW YORK, NY. More information available from US FCC via Universal Licensing System and Coast Guard Vessel Documentation Center.

Last reported at 2017-Dec-11 14:11 UTC. Time now 2018-Jan-23 10:18 UTC.
Position N 34°27' W 076°26'.
Warning: this ship's position is 42 days out of date.

Length 31 m; draft 4 m.

Type: Tug. MMSI: 366891960.

Date/timePositionNaut miles runAvg speedWind from/ knotsBaromVisibWave heightAir tempDewpointWater temp
2017-Dec-11 14:11N 34°27' W 076°26'2 9.5
2017-Dec-11 13:56N 34°28' W 076°23'4 9.6
2017-Dec-11 13:30N 34°31' W 076°19'141 7.7
2017-Dec-10 19:14N 36°49' W 075°50'210.1
2017-Dec-10 19:00N 36°51' W 075°52'5 9.8
2017-Dec-10 18:30N 36°55' W 075°56'5 9.7
2017-Dec-10 18:00N 36°57' W 076°02'7 9.4
2017-Dec-10 17:16N 36°59' W 076°10'8 7.8
2017-Dec-10 16:11N 36°57' W 076°20'2 9.1
2017-Dec-10 15:58N 36°55' W 076°20'3 6.2
2017-Dec-10 15:31N 36°52' W 076°20'2 4.0
2017-Dec-10 14:59N 36°51' W 076°18'1 1.5
2017-Dec-10 14:31N 36°50' W 076°17'0 0.0
2017-Dec-10 14:01N 36°50' W 076°17'0 0.0
2017-Dec-10 13:31N 36°50' W 076°17'0 0.0
2017-Dec-10 13:01N 36°50' W 076°17'2 3.0
2017-Dec-10 12:31N 36°49' W 076°17'1 2.0
2017-Dec-10 12:01N 36°48' W 076°18'0 0.0
2017-Dec-10 11:31N 36°48' W 076°18'0 0.0
2017-Dec-10 11:01N 36°48' W 076°18'0 0.0
2017-Dec-10 10:31N 36°48' W 076°18'1 2.2
2017-Dec-10 10:01N 36°49' W 076°17'3 6.4
2017-Dec-10 09:30N 36°52' W 076°19'5 9.4
2017-Dec-10 09:00N 36°56' W 076°20'123 8.6
2017-Dec-09 18:40N 38°60' W 076°23'5 9.6
2017-Dec-09 18:10N 39°04' W 076°24'4 9.4
2017-Dec-09 17:41N 39°09' W 076°25'2 9.4
2017-Dec-09 17:31N 39°10' W 076°26'5 9.2
2017-Dec-09 17:01N 39°12' W 076°31'4 8.3
2017-Dec-09 16:31N 39°16' W 076°34'1 1.3
2017-Dec-09 16:01N 39°16' W 076°35'0 0.0
2017-Dec-09 15:31N 39°16' W 076°35'0 0.0
2017-Dec-09 15:01N 39°16' W 076°35'0 0.0
2017-Dec-09 14:31N 39°16' W 076°35'0 0.0
2017-Dec-09 14:01N 39°16' W 076°35'0 0.0
2017-Dec-09 13:31N 39°16' W 076°35'0 0.0
2017-Dec-09 13:01N 39°16' W 076°35'0 0.0
2017-Dec-09 12:31N 39°16' W 076°35'0 0.0
2017-Dec-09 12:01N 39°16' W 076°35'0 0.0
2017-Dec-09 11:30N 39°16' W 076°35'0 0.0
2017-Dec-09 11:00N 39°16' W 076°35'0 0.0
2017-Dec-09 10:31N 39°16' W 076°35'0 0.0
2017-Dec-09 10:01N 39°16' W 076°35'0 0.0
2017-Dec-09 09:31N 39°16' W 076°35'0 0.0
2017-Dec-09 09:01N 39°16' W 076°35'0 0.0
2017-Dec-09 08:31N 39°16' W 076°35'0 0.0
2017-Dec-09 08:01N 39°16' W 076°35'0 0.0
2017-Dec-09 07:31N 39°16' W 076°35'2 3.6
2017-Dec-09 07:00N 39°15' W 076°33'4 8.1
2017-Dec-09 06:31N 39°12' W 076°30'5 9.4
2017-Dec-09 05:59N 39°10' W 076°24'4 8.5
2017-Dec-09 05:30N 39°10' W 076°19'10 8.7
2017-Dec-09 04:20N 39°19' W 076°13'3 8.3
2017-Dec-09 04:00N 39°21' W 076°11'5 8.3
2017-Dec-09 03:23N 39°23' W 076°05'3 7.9
2017-Dec-09 02:57N 39°25' W 076°01'3 7.7
2017-Dec-09 02:31N 39°28' W 075°58'4 7.8
2017-Dec-09 02:01N 39°30' W 075°55'4 7.5
2017-Dec-09 01:31N 39°32' W 075°50'4 7.8
2017-Dec-09 01:01N 39°32' W 075°45'4 8.7
2017-Dec-09 00:30N 39°33' W 075°39'4 8.7
2017-Dec-09 00:01N 39°34' W 075°34'4 8.4
2017-Dec-08 23:31N 39°38' W 075°35'510.2
2017-Dec-08 23:01N 39°42' W 075°31'510.5
2017-Dec-08 22:30N 39°47' W 075°28'510.0
2017-Dec-08 22:01N 39°50' W 075°22'4 8.3
2017-Dec-08 21:31N 39°51' W 075°17'4 8.5
2017-Dec-08 21:00N 39°53' W 075°12'1 2.5
2017-Dec-08 20:31N 39°54' W 075°12'0 0.0
2017-Dec-08 20:00N 39°54' W 075°12'0 0.0
2017-Dec-08 19:31N 39°54' W 075°12'0 0.0
2017-Dec-08 19:01N 39°54' W 075°12'0 0.0
2017-Dec-08 18:31N 39°54' W 075°12'0 0.0
2017-Dec-08 18:01N 39°54' W 075°12'0 0.0
2017-Dec-08 17:31N 39°54' W 075°12'0 0.0
2017-Dec-08 17:00N 39°54' W 075°12'0 0.0
2017-Dec-08 16:30N 39°54' W 075°12'0 0.0
2017-Dec-08 16:00N 39°54' W 075°12'0 0.0
2017-Dec-08 15:30N 39°54' W 075°12'0 0.0
2017-Dec-08 15:00N 39°54' W 075°12'0 0.0
2017-Dec-08 14:30N 39°54' W 075°12'0 0.0
2017-Dec-08 14:00N 39°54' W 075°12'0 0.0
2017-Dec-08 13:30N 39°54' W 075°12'0 0.0
2017-Dec-08 13:00N 39°54' W 075°12'0 0.0
2017-Dec-08 12:30N 39°54' W 075°12'0 0.0
2017-Dec-08 12:00N 39°54' W 075°12'0 0.0
2017-Dec-08 11:30N 39°54' W 075°12'0 0.0
2017-Dec-08 11:00N 39°54' W 075°12'0 0.0
2017-Dec-08 10:30N 39°54' W 075°12'0 0.0
2017-Dec-08 10:00N 39°54' W 075°12'0 0.0
2017-Dec-08 09:30N 39°54' W 075°12'0 0.0
2017-Dec-08 09:01N 39°54' W 075°12'0 0.0
2017-Dec-08 08:30N 39°54' W 075°12'0 0.0
2017-Dec-08 08:00N 39°54' W 075°12'0 0.0
2017-Dec-08 07:30N 39°54' W 075°12'0 0.0
2017-Dec-08 07:00N 39°54' W 075°12'0 0.0
2017-Dec-08 06:30N 39°54' W 075°12'0 0.0
2017-Dec-08 06:00N 39°54' W 075°12'0 0.0
2017-Dec-08 05:30N 39°54' W 075°12'0 0.0
2017-Dec-08 05:00N 39°54' W 075°12'0 0.0
2017-Dec-08 04:30N 39°54' W 075°12'0 0.0
2017-Dec-08 04:00N 39°54' W 075°12'0 0.0
2017-Dec-08 03:30N 39°54' W 075°12'0 0.0
2017-Dec-08 03:00N 39°54' W 075°12'0 0.0
2017-Dec-08 02:30N 39°54' W 075°12'0 0.0
2017-Dec-08 02:01N 39°54' W 075°12'0 0.0
2017-Dec-08 01:30N 39°54' W 075°12'0 0.0
2017-Dec-08 01:00N 39°54' W 075°12'0 0.0
2017-Dec-08 00:30N 39°54' W 075°12'0 0.0
2017-Dec-08 00:00N 39°54' W 075°12'0 0.0
2017-Dec-07 23:30N 39°54' W 075°12'0 0.0
2017-Dec-07 23:00N 39°54' W 075°12'0 0.0
2017-Dec-07 22:30N 39°54' W 075°12'0 0.0
2017-Dec-07 22:00N 39°54' W 075°12'0 0.0
2017-Dec-07 21:30N 39°54' W 075°12'0 0.0
2017-Dec-07 21:01N 39°54' W 075°12'0 0.0
2017-Dec-07 20:30N 39°54' W 075°12'0 0.0
2017-Dec-07 20:01N 39°54' W 075°12'0 0.0
2017-Dec-07 19:31N 39°54' W 075°12'0 0.0
2017-Dec-07 19:00N 39°54' W 075°12'0 0.0
2017-Dec-07 18:30N 39°54' W 075°12'0 0.0
2017-Dec-07 18:00N 39°54' W 075°12'0 0.0
2017-Dec-07 17:30N 39°54' W 075°12'0 0.0
2017-Dec-07 17:00N 39°54' W 075°12'0 0.0
2017-Dec-07 16:31N 39°54' W 075°12'0 0.0
2017-Dec-07 16:01N 39°54' W 075°12'0 0.0
2017-Dec-07 15:30N 39°54' W 075°12'0 0.0
2017-Dec-07 15:01N 39°54' W 075°12'0 0.0
2017-Dec-07 14:31N 39°54' W 075°12'0 0.0
2017-Dec-07 14:01N 39°54' W 075°12'0 0.0
2017-Dec-07 13:29N 39°54' W 075°12'0 0.0
2017-Dec-07 13:00N 39°54' W 075°12'0 0.0
2017-Dec-07 12:30N 39°54' W 075°12'0 0.0
2017-Dec-07 12:00N 39°54' W 075°12'0 0.0
2017-Dec-07 11:30N 39°54' W 075°12'0 0.0
2017-Dec-07 10:59N 39°54' W 075°12'0 0.0
2017-Dec-07 10:31N 39°54' W 075°12'0 0.0
2017-Dec-07 10:00N 39°54' W 075°12'0 0.0
2017-Dec-07 09:31N 39°54' W 075°12'0 0.0
2017-Dec-07 09:01N 39°54' W 075°12'0 0.0
2017-Dec-07 08:31N 39°54' W 075°12'0 0.0
2017-Dec-07 08:00N 39°54' W 075°12'0 0.0
2017-Dec-07 07:31N 39°54' W 075°12'0 0.0
2017-Dec-07 07:01N 39°54' W 075°12'0 0.0
2017-Dec-07 06:31N 39°54' W 075°12'0 0.0
2017-Dec-07 06:00N 39°54' W 075°12'0 0.0
2017-Dec-07 05:30N 39°54' W 075°12'0 0.0
2017-Dec-07 04:59N 39°54' W 075°12'0 0.0
2017-Dec-07 04:29N 39°54' W 075°12'0 0.0
2017-Dec-07 04:00N 39°54' W 075°12'0 0.0
2017-Dec-07 03:31N 39°54' W 075°12'0 0.0
2017-Dec-07 03:00N 39°54' W 075°12'0 0.0
2017-Dec-07 02:31N 39°54' W 075°12'0 0.0
2017-Dec-07 02:01N 39°54' W 075°12'0 0.0
2017-Dec-07 01:30N 39°54' W 075°12'0 0.0
2017-Dec-07 01:00N 39°54' W 075°12'0 0.0
2017-Dec-07 00:31N 39°54' W 075°12'0 0.0
2017-Dec-07 00:00N 39°54' W 075°12'0 0.0
2017-Dec-06 23:30N 39°54' W 075°12'0 0.0
2017-Dec-06 23:01N 39°54' W 075°12'0 0.0
2017-Dec-06 22:31N 39°54' W 075°12'0 0.0
2017-Dec-06 22:01N 39°54' W 075°12'0 0.0
2017-Dec-06 21:31N 39°54' W 075°12'0 0.0
2017-Dec-06 21:00N 39°54' W 075°12'  
2017-Dec-04 10:30N 39°54' W 075°12'0 0.0
2017-Dec-04 10:01N 39°54' W 075°12'0 0.0
2017-Dec-04 09:23N 39°54' W 075°12'0 0.0
2017-Dec-04 08:59N 39°54' W 075°12'0 0.0
2017-Dec-04 08:27N 39°54' W 075°12'0 0.0
2017-Dec-04 07:58N 39°54' W 075°12'0 0.0
2017-Dec-04 07:25N 39°54' W 075°12'0 0.0
2017-Dec-04 06:59N 39°54' W 075°12'0 0.0
2017-Dec-04 06:27N 39°54' W 075°12'0 0.0
2017-Dec-04 05:53N 39°54' W 075°12'0 0.0
2017-Dec-04 05:29N 39°54' W 075°12'0 0.0
2017-Dec-04 04:59N 39°54' W 075°12'0 0.0
2017-Dec-04 04:26N 39°54' W 075°12'0 0.0
2017-Dec-04 04:00N 39°54' W 075°12'0 0.0
2017-Dec-04 03:27N 39°54' W 075°12'0 0.0
2017-Dec-04 02:57N 39°54' W 075°12'0 0.0
2017-Dec-04 02:28N 39°54' W 075°12'0 0.0
2017-Dec-04 01:59N 39°54' W 075°12'0 0.0
2017-Dec-04 01:28N 39°54' W 075°12'0 0.0
2017-Dec-04 00:55N 39°54' W 075°12'0 0.0
2017-Dec-04 00:27N 39°54' W 075°12'0 0.0
2017-Dec-04 00:00N 39°54' W 075°12'0 0.0
2017-Dec-03 23:30N 39°54' W 075°12'0 0.0
2017-Dec-03 23:00N 39°54' W 075°12'0 0.0
2017-Dec-03 22:29N 39°54' W 075°12'0 0.0
2017-Dec-03 22:00N 39°54' W 075°12'0 0.0
2017-Dec-03 21:30N 39°54' W 075°12'0 0.0
2017-Dec-03 20:54N 39°54' W 075°12'0 0.0
2017-Dec-03 20:28N 39°54' W 075°12'0 0.0
2017-Dec-03 20:01N 39°54' W 075°12'0 0.0
2017-Dec-03 19:26N 39°54' W 075°12'0 0.0
2017-Dec-03 18:58N 39°54' W 075°12'0 0.0
2017-Dec-03 18:29N 39°54' W 075°12'0 0.0
2017-Dec-03 17:59N 39°54' W 075°12'0 0.0
2017-Dec-03 17:29N 39°54' W 075°12'0 0.0
2017-Dec-03 16:59N 39°54' W 075°12'0 0.0
2017-Dec-03 16:23N 39°54' W 075°12'0 0.0
2017-Dec-03 15:56N 39°54' W 075°12'0 0.0
2017-Dec-03 15:25N 39°54' W 075°12'0 0.0
2017-Dec-03 14:56N 39°54' W 075°12'0 0.0
2017-Dec-03 14:28N 39°54' W 075°12'0 0.0
2017-Dec-03 14:00N 39°54' W 075°12'0 0.0
2017-Dec-03 13:24N 39°54' W 075°12'0 0.0
2017-Dec-03 12:56N 39°54' W 075°12'0 0.0
2017-Dec-03 12:26N 39°54' W 075°12'0 0.0
2017-Dec-03 11:59N 39°54' W 075°12'0 0.0
2017-Dec-03 11:28N 39°54' W 075°12'0 0.0
2017-Dec-03 10:58N 39°54' W 075°12'0 0.0
2017-Dec-03 10:31N 39°54' W 075°12'0 0.0
2017-Dec-03 09:55N 39°54' W 075°12'0 0.0
2017-Dec-03 09:30N 39°54' W 075°12'0 0.0
2017-Dec-03 08:51N 39°54' W 075°12'0 0.0
2017-Dec-03 08:30N 39°54' W 075°12'0 0.0
2017-Dec-03 08:00N 39°54' W 075°12'0 0.0
2017-Dec-03 07:29N 39°54' W 075°12'0 0.0
2017-Dec-03 06:58N 39°54' W 075°12'0 0.0
2017-Dec-03 06:28N 39°54' W 075°12'0 0.0
2017-Dec-03 06:00N 39°54' W 075°12'0 0.0
2017-Dec-03 05:29N 39°54' W 075°12'0 0.0
2017-Dec-03 04:58N 39°54' W 075°12'0 0.0
2017-Dec-03 04:27N 39°54' W 075°12'0 0.0
2017-Dec-03 03:57N 39°54' W 075°12'0 0.0
2017-Dec-03 03:30N 39°54' W 075°12'0 0.0
2017-Dec-03 02:59N 39°54' W 075°12'0 0.0
2017-Dec-03 02:29N 39°54' W 075°12'0 0.0
2017-Dec-03 02:00N 39°54' W 075°12'0 0.0
2017-Dec-03 01:27N 39°54' W 075°12'0 0.0
2017-Dec-03 00:59N 39°54' W 075°12'0 0.0
2017-Dec-03 00:30N 39°54' W 075°12'0 0.0
2017-Dec-02 23:58N 39°54' W 075°12'0 0.0
2017-Dec-02 23:30N 39°54' W 075°12'0 0.0
2017-Dec-02 22:59N 39°54' W 075°12'0 0.0
2017-Dec-02 22:27N 39°54' W 075°12'0 0.0
2017-Dec-02 21:58N 39°54' W 075°12'0 0.0
2017-Dec-02 21:28N 39°54' W 075°12'0 0.0
2017-Dec-02 21:00N 39°54' W 075°12'0 0.0
2017-Dec-02 20:29N 39°54' W 075°12'0 0.0
2017-Dec-02 19:56N 39°54' W 075°12'0 0.0
2017-Dec-02 19:29N 39°54' W 075°12'0 0.0
2017-Dec-02 18:59N 39°54' W 075°12'0 0.0
2017-Dec-02 18:26N 39°54' W 075°12'0 0.0
2017-Dec-02 18:00N 39°54' W 075°12'0 0.0
2017-Dec-02 17:28N 39°54' W 075°12'0 0.0
2017-Dec-02 17:00N 39°54' W 075°12'0 0.0
2017-Dec-02 16:28N 39°54' W 075°12'0 0.0
2017-Dec-02 15:57N 39°54' W 075°12'0 0.0
2017-Dec-02 15:30N 39°54' W 075°12'0 0.0
2017-Dec-02 14:59N 39°54' W 075°12'0 0.0
2017-Dec-02 14:30N 39°54' W 075°12'0 0.0
2017-Dec-02 13:59N 39°54' W 075°12'0 0.0
2017-Dec-02 13:28N 39°54' W 075°12'0 0.0
2017-Dec-02 12:59N 39°54' W 075°12'0 0.0
2017-Dec-02 12:26N 39°54' W 075°12'0 0.0
2017-Dec-02 11:59N 39°54' W 075°12'0 0.0
2017-Dec-02 11:29N 39°54' W 075°12'0 0.0
2017-Dec-02 10:57N 39°54' W 075°12'0 0.0
2017-Dec-02 10:29N 39°54' W 075°12'0 0.0
2017-Dec-02 09:58N 39°54' W 075°12'0 0.0
2017-Dec-02 09:30N 39°54' W 075°12'0 0.0
2017-Dec-02 08:59N 39°54' W 075°12'0 0.0
2017-Dec-02 08:30N 39°54' W 075°12'0 0.0
2017-Dec-02 07:58N 39°54' W 075°12'0 0.0
2017-Dec-02 07:28N 39°54' W 075°12'0 0.0
2017-Dec-02 06:58N 39°54' W 075°12'0 0.0
2017-Dec-02 06:30N 39°54' W 075°12'0 0.0
2017-Dec-02 06:00N 39°54' W 075°12'0 0.0
2017-Dec-02 05:30N 39°54' W 075°12'0 0.0
2017-Dec-02 05:00N 39°54' W 075°12'0 0.0
2017-Dec-02 04:29N 39°54' W 075°12'0 0.0
2017-Dec-02 04:00N 39°54' W 075°12'0 0.0
2017-Dec-02 03:29N 39°54' W 075°12'0 0.0
2017-Dec-02 03:00N 39°54' W 075°12'0 0.0
2017-Dec-02 02:30N 39°54' W 075°12'0 0.0
2017-Dec-02 01:59N 39°54' W 075°12'0 0.0
2017-Dec-02 01:30N 39°54' W 075°12'0 0.0
2017-Dec-02 00:59N 39°54' W 075°12'0 0.0
2017-Dec-02 00:30N 39°54' W 075°12'0 0.0
2017-Dec-02 00:00N 39°54' W 075°12'0 0.0
2017-Dec-01 23:30N 39°54' W 075°12'0 0.0
2017-Dec-01 23:00N 39°54' W 075°12'0 0.0
2017-Dec-01 22:31N 39°54' W 075°12'0 0.0
2017-Dec-01 22:00N 39°54' W 075°12'0 0.0
2017-Dec-01 21:28N 39°54' W 075°12'0 0.0
2017-Dec-01 21:00N 39°54' W 075°12'0 0.0
2017-Dec-01 20:30N 39°54' W 075°12'0 0.0
2017-Dec-01 20:01N 39°54' W 075°12'0 0.0
2017-Dec-01 19:31N 39°54' W 075°12'0 0.0
2017-Dec-01 19:01N 39°54' W 075°12'0 0.0
2017-Dec-01 18:30N 39°54' W 075°12'0 0.0
2017-Dec-01 18:01N 39°54' W 075°12'0 0.0
2017-Dec-01 17:31N 39°54' W 075°12'0 0.0
2017-Dec-01 17:01N 39°54' W 075°12'0 0.0
2017-Dec-01 16:30N 39°54' W 075°12'0 0.0
2017-Dec-01 16:00N 39°54' W 075°12'0 0.0
2017-Dec-01 15:30N 39°54' W 075°12'0 0.0
2017-Dec-01 15:00N 39°54' W 075°12'0 0.0
2017-Dec-01 14:30N 39°54' W 075°12'  
Track history (hours):
 
Tides and Currents Weather Stations Pressure Air Temp Water Temp Dewpoint Dewpoint Depression Visibility Wind Speed Wind Dir Waves Ship Positions

Kaleen Mc Allister

Owner: MC ALLISTER TOWING & TRANSPORTATION INC, NEW YORK, NY. More information available from US FCC via Universal Licensing System and Coast Guard Vessel Documentation Center.

Last reported at 2017-Dec-11 14:11 UTC. Time now 2018-Jan-23 10:18 UTC.
Position N 34°27' W 076°26'.
Warning: this ship's position is 42 days out of date.

Length 31 m; draft 4 m.

Type: Tug. MMSI: 366891960.

Date/timePositionNaut miles runAvg speedWind from/ knotsBaromVisibWave heightAir tempDewpointWater temp
2017-Dec-11 14:11N 34°27' W 076°26'2 9.5
2017-Dec-11 13:56N 34°28' W 076°23'4 9.6
2017-Dec-11 13:30N 34°31' W 076°19'141 7.7
2017-Dec-10 19:14N 36°49' W 075°50'210.1
2017-Dec-10 19:00N 36°51' W 075°52'5 9.8
2017-Dec-10 18:30N 36°55' W 075°56'5 9.7
2017-Dec-10 18:00N 36°57' W 076°02'7 9.4
2017-Dec-10 17:16N 36°59' W 076°10'8 7.8
2017-Dec-10 16:11N 36°57' W 076°20'2 9.1
2017-Dec-10 15:58N 36°55' W 076°20'3 6.2
2017-Dec-10 15:31N 36°52' W 076°20'2 4.0
2017-Dec-10 14:59N 36°51' W 076°18'1 1.5
2017-Dec-10 14:31N 36°50' W 076°17'0 0.0
2017-Dec-10 14:01N 36°50' W 076°17'0 0.0
2017-Dec-10 13:31N 36°50' W 076°17'0 0.0
2017-Dec-10 13:01N 36°50' W 076°17'2 3.0
2017-Dec-10 12:31N 36°49' W 076°17'1 2.0
2017-Dec-10 12:01N 36°48' W 076°18'0 0.0
2017-Dec-10 11:31N 36°48' W 076°18'0 0.0
2017-Dec-10 11:01N 36°48' W 076°18'0 0.0
2017-Dec-10 10:31N 36°48' W 076°18'1 2.2
2017-Dec-10 10:01N 36°49' W 076°17'3 6.4
2017-Dec-10 09:30N 36°52' W 076°19'5 9.4
2017-Dec-10 09:00N 36°56' W 076°20'123 8.6
2017-Dec-09 18:40N 38°60' W 076°23'5 9.6
2017-Dec-09 18:10N 39°04' W 076°24'4 9.4
2017-Dec-09 17:41N 39°09' W 076°25'2 9.4
2017-Dec-09 17:31N 39°10' W 076°26'5 9.2
2017-Dec-09 17:01N 39°12' W 076°31'4 8.3
2017-Dec-09 16:31N 39°16' W 076°34'1 1.3
2017-Dec-09 16:01N 39°16' W 076°35'0 0.0
2017-Dec-09 15:31N 39°16' W 076°35'0 0.0
2017-Dec-09 15:01N 39°16' W 076°35'0 0.0
2017-Dec-09 14:31N 39°16' W 076°35'0 0.0
2017-Dec-09 14:01N 39°16' W 076°35'0 0.0
2017-Dec-09 13:31N 39°16' W 076°35'0 0.0
2017-Dec-09 13:01N 39°16' W 076°35'0 0.0
2017-Dec-09 12:31N 39°16' W 076°35'0 0.0
2017-Dec-09 12:01N 39°16' W 076°35'0 0.0
2017-Dec-09 11:30N 39°16' W 076°35'0 0.0
2017-Dec-09 11:00N 39°16' W 076°35'0 0.0
2017-Dec-09 10:31N 39°16' W 076°35'0 0.0
2017-Dec-09 10:01N 39°16' W 076°35'0 0.0
2017-Dec-09 09:31N 39°16' W 076°35'0 0.0
2017-Dec-09 09:01N 39°16' W 076°35'0 0.0
2017-Dec-09 08:31N 39°16' W 076°35'0 0.0
2017-Dec-09 08:01N 39°16' W 076°35'0 0.0
2017-Dec-09 07:31N 39°16' W 076°35'2 3.6
2017-Dec-09 07:00N 39°15' W 076°33'4 8.1
2017-Dec-09 06:31N 39°12' W 076°30'5 9.4
2017-Dec-09 05:59N 39°10' W 076°24'4 8.5
2017-Dec-09 05:30N 39°10' W 076°19'10 8.7
2017-Dec-09 04:20N 39°19' W 076°13'3 8.3
2017-Dec-09 04:00N 39°21' W 076°11'5 8.3
2017-Dec-09 03:23N 39°23' W 076°05'3 7.9
2017-Dec-09 02:57N 39°25' W 076°01'3 7.7
2017-Dec-09 02:31N 39°28' W 075°58'4 7.8
2017-Dec-09 02:01N 39°30' W 075°55'4 7.5
2017-Dec-09 01:31N 39°32' W 075°50'4 7.8
2017-Dec-09 01:01N 39°32' W 075°45'4 8.7
2017-Dec-09 00:30N 39°33' W 075°39'4 8.7
2017-Dec-09 00:01N 39°34' W 075°34'4 8.4
2017-Dec-08 23:31N 39°38' W 075°35'510.2
2017-Dec-08 23:01N 39°42' W 075°31'510.5
2017-Dec-08 22:30N 39°47' W 075°28'510.0
2017-Dec-08 22:01N 39°50' W 075°22'4 8.3
2017-Dec-08 21:31N 39°51' W 075°17'4 8.5
2017-Dec-08 21:00N 39°53' W 075°12'1 2.5
2017-Dec-08 20:31N 39°54' W 075°12'0 0.0
2017-Dec-08 20:00N 39°54' W 075°12'0 0.0
2017-Dec-08 19:31N 39°54' W 075°12'0 0.0
2017-Dec-08 19:01N 39°54' W 075°12'0 0.0
2017-Dec-08 18:31N 39°54' W 075°12'0 0.0
2017-Dec-08 18:01N 39°54' W 075°12'0 0.0
2017-Dec-08 17:31N 39°54' W 075°12'0 0.0
2017-Dec-08 17:00N 39°54' W 075°12'0 0.0
2017-Dec-08 16:30N 39°54' W 075°12'0 0.0
2017-Dec-08 16:00N 39°54' W 075°12'0 0.0
2017-Dec-08 15:30N 39°54' W 075°12'0 0.0
2017-Dec-08 15:00N 39°54' W 075°12'0 0.0
2017-Dec-08 14:30N 39°54' W 075°12'0 0.0
2017-Dec-08 14:00N 39°54' W 075°12'0 0.0
2017-Dec-08 13:30N 39°54' W 075°12'0 0.0
2017-Dec-08 13:00N 39°54' W 075°12'0 0.0
2017-Dec-08 12:30N 39°54' W 075°12'0 0.0
2017-Dec-08 12:00N 39°54' W 075°12'0 0.0
2017-Dec-08 11:30N 39°54' W 075°12'0 0.0
2017-Dec-08 11:00N 39°54' W 075°12'0 0.0
2017-Dec-08 10:30N 39°54' W 075°12'0 0.0
2017-Dec-08 10:00N 39°54' W 075°12'0 0.0
2017-Dec-08 09:30N 39°54' W 075°12'0 0.0
2017-Dec-08 09:01N 39°54' W 075°12'0 0.0
2017-Dec-08 08:30N 39°54' W 075°12'0 0.0
2017-Dec-08 08:00N 39°54' W 075°12'0 0.0
2017-Dec-08 07:30N 39°54' W 075°12'0 0.0
2017-Dec-08 07:00N 39°54' W 075°12'0 0.0
2017-Dec-08 06:30N 39°54' W 075°12'0 0.0
2017-Dec-08 06:00N 39°54' W 075°12'0 0.0
2017-Dec-08 05:30N 39°54' W 075°12'0 0.0
2017-Dec-08 05:00N 39°54' W 075°12'0 0.0
2017-Dec-08 04:30N 39°54' W 075°12'0 0.0
2017-Dec-08 04:00N 39°54' W 075°12'0 0.0
2017-Dec-08 03:30N 39°54' W 075°12'0 0.0
2017-Dec-08 03:00N 39°54' W 075°12'0 0.0
2017-Dec-08 02:30N 39°54' W 075°12'0 0.0
2017-Dec-08 02:01N 39°54' W 075°12'0 0.0
2017-Dec-08 01:30N 39°54' W 075°12'0 0.0
2017-Dec-08 01:00N 39°54' W 075°12'0 0.0
2017-Dec-08 00:30N 39°54' W 075°12'0 0.0
2017-Dec-08 00:00N 39°54' W 075°12'0 0.0
2017-Dec-07 23:30N 39°54' W 075°12'0 0.0
2017-Dec-07 23:00N 39°54' W 075°12'0 0.0
2017-Dec-07 22:30N 39°54' W 075°12'0 0.0
2017-Dec-07 22:00N 39°54' W 075°12'0 0.0
2017-Dec-07 21:30N 39°54' W 075°12'0 0.0
2017-Dec-07 21:01N 39°54' W 075°12'0 0.0
2017-Dec-07 20:30N 39°54' W 075°12'0 0.0
2017-Dec-07 20:01N 39°54' W 075°12'0 0.0
2017-Dec-07 19:31N 39°54' W 075°12'0 0.0
2017-Dec-07 19:00N 39°54' W 075°12'0 0.0
2017-Dec-07 18:30N 39°54' W 075°12'0 0.0
2017-Dec-07 18:00N 39°54' W 075°12'0 0.0
2017-Dec-07 17:30N 39°54' W 075°12'0 0.0
2017-Dec-07 17:00N 39°54' W 075°12'0 0.0
2017-Dec-07 16:31N 39°54' W 075°12'0 0.0
2017-Dec-07 16:01N 39°54' W 075°12'0 0.0
2017-Dec-07 15:30N 39°54' W 075°12'0 0.0
2017-Dec-07 15:01N 39°54' W 075°12'0 0.0
2017-Dec-07 14:31N 39°54' W 075°12'0 0.0
2017-Dec-07 14:01N 39°54' W 075°12'0 0.0
2017-Dec-07 13:29N 39°54' W 075°12'0 0.0
2017-Dec-07 13:00N 39°54' W 075°12'0 0.0
2017-Dec-07 12:30N 39°54' W 075°12'0 0.0
2017-Dec-07 12:00N 39°54' W 075°12'0 0.0
2017-Dec-07 11:30N 39°54' W 075°12'0 0.0
2017-Dec-07 10:59N 39°54' W 075°12'0 0.0
2017-Dec-07 10:31N 39°54' W 075°12'0 0.0
2017-Dec-07 10:00N 39°54' W 075°12'0 0.0
2017-Dec-07 09:31N 39°54' W 075°12'0 0.0
2017-Dec-07 09:01N 39°54' W 075°12'0 0.0
2017-Dec-07 08:31N 39°54' W 075°12'0 0.0
2017-Dec-07 08:00N 39°54' W 075°12'0 0.0
2017-Dec-07 07:31N 39°54' W 075°12'0 0.0
2017-Dec-07 07:01N 39°54' W 075°12'0 0.0
2017-Dec-07 06:31N 39°54' W 075°12'0 0.0
2017-Dec-07 06:00N 39°54' W 075°12'0 0.0
2017-Dec-07 05:30N 39°54' W 075°12'0 0.0
2017-Dec-07 04:59N 39°54' W 075°12'0 0.0
2017-Dec-07 04:29N 39°54' W 075°12'0 0.0
2017-Dec-07 04:00N 39°54' W 075°12'0 0.0
2017-Dec-07 03:31N 39°54' W 075°12'0 0.0
2017-Dec-07 03:00N 39°54' W 075°12'0 0.0
2017-Dec-07 02:31N 39°54' W 075°12'0 0.0
2017-Dec-07 02:01N 39°54' W 075°12'0 0.0
2017-Dec-07 01:30N 39°54' W 075°12'0 0.0
2017-Dec-07 01:00N 39°54' W 075°12'0 0.0
2017-Dec-07 00:31N 39°54' W 075°12'0 0.0
2017-Dec-07 00:00N 39°54' W 075°12'0 0.0
2017-Dec-06 23:30N 39°54' W 075°12'0 0.0
2017-Dec-06 23:01N 39°54' W 075°12'0 0.0
2017-Dec-06 22:31N 39°54' W 075°12'0 0.0
2017-Dec-06 22:01N 39°54' W 075°12'0 0.0
2017-Dec-06 21:31N 39°54' W 075°12'0 0.0
2017-Dec-06 21:00N 39°54' W 075°12'  
2017-Dec-04 10:30N 39°54' W 075°12'0 0.0
2017-Dec-04 10:01N 39°54' W 075°12'0 0.0
2017-Dec-04 09:23N 39°54' W 075°12'0 0.0
2017-Dec-04 08:59N 39°54' W 075°12'0 0.0
2017-Dec-04 08:27N 39°54' W 075°12'0 0.0
2017-Dec-04 07:58N 39°54' W 075°12'0 0.0
2017-Dec-04 07:25N 39°54' W 075°12'0 0.0
2017-Dec-04 06:59N 39°54' W 075°12'0 0.0
2017-Dec-04 06:27N 39°54' W 075°12'0 0.0
2017-Dec-04 05:53N 39°54' W 075°12'0 0.0
2017-Dec-04 05:29N 39°54' W 075°12'0 0.0
2017-Dec-04 04:59N 39°54' W 075°12'0 0.0
2017-Dec-04 04:26N 39°54' W 075°12'0 0.0
2017-Dec-04 04:00N 39°54' W 075°12'0 0.0
2017-Dec-04 03:27N 39°54' W 075°12'0 0.0
2017-Dec-04 02:57N 39°54' W 075°12'0 0.0
2017-Dec-04 02:28N 39°54' W 075°12'0 0.0
2017-Dec-04 01:59N 39°54' W 075°12'0 0.0
2017-Dec-04 01:28N 39°54' W 075°12'0 0.0
2017-Dec-04 00:55N 39°54' W 075°12'0 0.0
2017-Dec-04 00:27N 39°54' W 075°12'0 0.0
2017-Dec-04 00:00N 39°54' W 075°12'0 0.0
2017-Dec-03 23:30N 39°54' W 075°12'0 0.0
2017-Dec-03 23:00N 39°54' W 075°12'0 0.0
2017-Dec-03 22:29N 39°54' W 075°12'0 0.0
2017-Dec-03 22:00N 39°54' W 075°12'0 0.0
2017-Dec-03 21:30N 39°54' W 075°12'0 0.0
2017-Dec-03 20:54N 39°54' W 075°12'0 0.0
2017-Dec-03 20:28N 39°54' W 075°12'0 0.0
2017-Dec-03 20:01N 39°54' W 075°12'0 0.0
2017-Dec-03 19:26N 39°54' W 075°12'0 0.0
2017-Dec-03 18:58N 39°54' W 075°12'0 0.0
2017-Dec-03 18:29N 39°54' W 075°12'0 0.0
2017-Dec-03 17:59N 39°54' W 075°12'0 0.0
2017-Dec-03 17:29N 39°54' W 075°12'0 0.0
2017-Dec-03 16:59N 39°54' W 075°12'0 0.0
2017-Dec-03 16:23N 39°54' W 075°12'0 0.0
2017-Dec-03 15:56N 39°54' W 075°12'0 0.0
2017-Dec-03 15:25N 39°54' W 075°12'0 0.0
2017-Dec-03 14:56N 39°54' W 075°12'0 0.0
2017-Dec-03 14:28N 39°54' W 075°12'0 0.0
2017-Dec-03 14:00N 39°54' W 075°12'0 0.0
2017-Dec-03 13:24N 39°54' W 075°12'0 0.0
2017-Dec-03 12:56N 39°54' W 075°12'0 0.0
2017-Dec-03 12:26N 39°54' W 075°12'0 0.0
2017-Dec-03 11:59N 39°54' W 075°12'0 0.0
2017-Dec-03 11:28N 39°54' W 075°12'0 0.0
2017-Dec-03 10:58N 39°54' W 075°12'0 0.0
2017-Dec-03 10:31N 39°54' W 075°12'0 0.0
2017-Dec-03 09:55N 39°54' W 075°12'0 0.0
2017-Dec-03 09:30N 39°54' W 075°12'0 0.0
2017-Dec-03 08:51N 39°54' W 075°12'0 0.0
2017-Dec-03 08:30N 39°54' W 075°12'0 0.0
2017-Dec-03 08:00N 39°54' W 075°12'0 0.0
2017-Dec-03 07:29N 39°54' W 075°12'0 0.0
2017-Dec-03 06:58N 39°54' W 075°12'0 0.0
2017-Dec-03 06:28N 39°54' W 075°12'0 0.0
2017-Dec-03 06:00N 39°54' W 075°12'0 0.0
2017-Dec-03 05:29N 39°54' W 075°12'0 0.0
2017-Dec-03 04:58N 39°54' W 075°12'0 0.0
2017-Dec-03 04:27N 39°54' W 075°12'0 0.0
2017-Dec-03 03:57N 39°54' W 075°12'0 0.0
2017-Dec-03 03:30N 39°54' W 075°12'0 0.0
2017-Dec-03 02:59N 39°54' W 075°12'0 0.0
2017-Dec-03 02:29N 39°54' W 075°12'0 0.0
2017-Dec-03 02:00N 39°54' W 075°12'0 0.0
2017-Dec-03 01:27N 39°54' W 075°12'0 0.0
2017-Dec-03 00:59N 39°54' W 075°12'0 0.0
2017-Dec-03 00:30N 39°54' W 075°12'0 0.0
2017-Dec-02 23:58N 39°54' W 075°12'0 0.0
2017-Dec-02 23:30N 39°54' W 075°12'0 0.0
2017-Dec-02 22:59N 39°54' W 075°12'0 0.0
2017-Dec-02 22:27N 39°54' W 075°12'0 0.0
2017-Dec-02 21:58N 39°54' W 075°12'0 0.0
2017-Dec-02 21:28N 39°54' W 075°12'0 0.0
2017-Dec-02 21:00N 39°54' W 075°12'0 0.0
2017-Dec-02 20:29N 39°54' W 075°12'0 0.0
2017-Dec-02 19:56N 39°54' W 075°12'0 0.0
2017-Dec-02 19:29N 39°54' W 075°12'0 0.0
2017-Dec-02 18:59N 39°54' W 075°12'0 0.0
2017-Dec-02 18:26N 39°54' W 075°12'0 0.0
2017-Dec-02 18:00N 39°54' W 075°12'0 0.0
2017-Dec-02 17:28N 39°54' W 075°12'0 0.0
2017-Dec-02 17:00N 39°54' W 075°12'0 0.0
2017-Dec-02 16:28N 39°54' W 075°12'0 0.0
2017-Dec-02 15:57N 39°54' W 075°12'0 0.0
2017-Dec-02 15:30N 39°54' W 075°12'0 0.0
2017-Dec-02 14:59N 39°54' W 075°12'0 0.0
2017-Dec-02 14:30N 39°54' W 075°12'0 0.0
2017-Dec-02 13:59N 39°54' W 075°12'0 0.0
2017-Dec-02 13:28N 39°54' W 075°12'0 0.0
2017-Dec-02 12:59N 39°54' W 075°12'0 0.0
2017-Dec-02 12:26N 39°54' W 075°12'0 0.0
2017-Dec-02 11:59N 39°54' W 075°12'0 0.0
2017-Dec-02 11:29N 39°54' W 075°12'0 0.0
2017-Dec-02 10:57N 39°54' W 075°12'0 0.0
2017-Dec-02 10:29N 39°54' W 075°12'0 0.0
2017-Dec-02 09:58N 39°54' W 075°12'0 0.0
2017-Dec-02 09:30N 39°54' W 075°12'0 0.0
2017-Dec-02 08:59N 39°54' W 075°12'0 0.0
2017-Dec-02 08:30N 39°54' W 075°12'0 0.0
2017-Dec-02 07:58N 39°54' W 075°12'0 0.0
2017-Dec-02 07:28N 39°54' W 075°12'0 0.0
2017-Dec-02 06:58N 39°54' W 075°12'0 0.0
2017-Dec-02 06:30N 39°54' W 075°12'0 0.0
2017-Dec-02 06:00N 39°54' W 075°12'0 0.0
2017-Dec-02 05:30N 39°54' W 075°12'0 0.0
2017-Dec-02 05:00N 39°54' W 075°12'0 0.0
2017-Dec-02 04:29N 39°54' W 075°12'0 0.0
2017-Dec-02 04:00N 39°54' W 075°12'0 0.0
2017-Dec-02 03:29N 39°54' W 075°12'0 0.0
2017-Dec-02 03:00N 39°54' W 075°12'0 0.0
2017-Dec-02 02:30N 39°54' W 075°12'0 0.0
2017-Dec-02 01:59N 39°54' W 075°12'0 0.0
2017-Dec-02 01:30N 39°54' W 075°12'0 0.0
2017-Dec-02 00:59N 39°54' W 075°12'0 0.0
2017-Dec-02 00:30N 39°54' W 075°12'0 0.0
2017-Dec-02 00:00N 39°54' W 075°12'0 0.0
2017-Dec-01 23:30N 39°54' W 075°12'0 0.0
2017-Dec-01 23:00N 39°54' W 075°12'0 0.0
2017-Dec-01 22:31N 39°54' W 075°12'0 0.0
2017-Dec-01 22:00N 39°54' W 075°12'0 0.0
2017-Dec-01 21:28N 39°54' W 075°12'0 0.0
2017-Dec-01 21:00N 39°54' W 075°12'0 0.0
2017-Dec-01 20:30N 39°54' W 075°12'0 0.0
2017-Dec-01 20:01N 39°54' W 075°12'0 0.0
2017-Dec-01 19:31N 39°54' W 075°12'0 0.0
2017-Dec-01 19:01N 39°54' W 075°12'0 0.0
2017-Dec-01 18:30N 39°54' W 075°12'0 0.0
2017-Dec-01 18:01N 39°54' W 075°12'0 0.0
2017-Dec-01 17:31N 39°54' W 075°12'0 0.0
2017-Dec-01 17:01N 39°54' W 075°12'0 0.0
2017-Dec-01 16:30N 39°54' W 075°12'0 0.0
2017-Dec-01 16:00N 39°54' W 075°12'0 0.0
2017-Dec-01 15:30N 39°54' W 075°12'0 0.0
2017-Dec-01 15:00N 39°54' W 075°12'0 0.0
2017-Dec-01 14:30N 39°54' W 075°12'  

Dump ship's entire track history